Time;durP1;ratioP1;P1;durP2;ratioP2;P2;SDS_P1;SDS_P2;PMS_P1;PMS_P2;Temp;Humidity;BMP_temperature;BMP_pressure;BME280_temperature;BME280_humidity;BME280_pressure;Samples;Min_cycle;Max_cycle;Signal;HPM_P1;HPM_P2
2022/04/04 00:01:10;;;;;;;25.27;12.52;;;;;;;;;;5055782;28;20065;-76
2022/04/04 00:03:36;;;;;;;21.95;12.40;;;;;;;;;;5055691;28;20029;-77
2022/04/04 00:06:01;;;;;;;20.17;11.68;;;;;;;;;;5055873;28;20382;-76
2022/04/04 00:08:27;;;;;;;21.52;11.73;;;;;;;;;;5055621;28;20021;-76
2022/04/04 00:10:53;;;;;;;26.35;12.07;;;;;;;;;;5055541;28;20025;-76
2022/04/04 00:13:18;;;;;;;24.38;11.40;;;;;;;;;;5055364;28;20032;-77
2022/04/04 00:15:44;;;;;;;20.55;11.73;;;;;;;;;;5055494;28;20032;-77
2022/04/04 00:18:10;;;;;;;20.83;11.73;;;;;;;;;;5036792;28;20041;-76
2022/04/04 00:20:36;;;;;;;20.33;11.95;;;;;;;;;;5054558;28;20025;-77
2022/04/04 00:23:02;;;;;;;20.60;11.13;;;;;;;;;;5054253;28;20040;-76
2022/04/04 00:25:28;;;;;;;19.45;11.10;;;;;;;;;;5037518;28;20037;-76
2022/04/04 00:27:54;;;;;;;23.20;11.98;;;;;;;;;;5055049;28;20074;-76
2022/04/04 00:30:19;;;;;;;20.00;11.52;;;;;;;;;;5055152;28;20029;-76
2022/04/04 00:32:45;;;;;;;21.23;11.45;;;;;;;;;;5055199;28;20036;-77
2022/04/04 00:35:10;;;;;;;21.00;11.85;;;;;;;;;;5053951;28;20029;-74
2022/04/04 00:37:38;;;;;;;24.40;11.63;;;;;;;;;;5037449;28;20029;-76
2022/04/04 00:40:05;;;;;;;21.10;11.13;;;;;;;;;;5055069;28;20106;-77
2022/04/04 00:42:31;;;;;;;20.38;11.15;;;;;;;;;;5054903;28;20055;-77
2022/04/04 00:44:56;;;;;;;20.33;11.10;;;;;;;;;;5054884;28;20041;-76
2022/04/04 00:47:22;;;;;;;19.60;11.00;;;;;;;;;;5055308;28;20376;-77
2022/04/04 00:49:48;;;;;;;22.75;11.60;;;;;;;;;;5054912;28;20406;-77
2022/04/04 00:52:13;;;;;;;23.25;11.95;;;;;;;;;;5055141;28;20689;-76
2022/04/04 00:54:39;;;;;;;19.70;10.80;;;;;;;;;;5054813;28;20033;-77
2022/04/04 00:57:04;;;;;;;18.40;10.43;;;;;;;;;;5037285;28;20059;-77
2022/04/04 00:59:30;;;;;;;25.42;12.15;;;;;;;;;;5054799;28;20032;-77
2022/04/04 01:01:56;;;;;;;22.60;12.00;;;;;;;;;;5036968;28;20354;-74
2022/04/04 01:04:23;;;;;;;22.35;11.65;;;;;;;;;;5055006;28;20147;-76
2022/04/04 01:06:48;;;;;;;20.02;11.30;;;;;;;;;;5054610;28;20112;-77
2022/04/04 01:09:14;;;;;;;20.63;11.95;;;;;;;;;;5054845;28;20454;-77
2022/04/04 01:12:08;;;;;;;21.38;11.50;;;;;;;;;;5053404;28;20025;-74
2022/04/04 01:14:39;;;;;;;23.83;12.52;;;;;;;;;;5054383;28;20114;-77
2022/04/04 01:17:06;;;;;;;22.65;11.43;;;;;;;;;;5054453;28;20442;-77
2022/04/04 01:19:31;;;;;;;22.05;11.80;;;;;;;;;;5036876;28;20036;-77
2022/04/04 01:21:57;;;;;;;21.90;12.20;;;;;;;;;;5054336;28;20021;-76
2022/04/04 01:24:23;;;;;;;23.52;12.30;;;;;;;;;;5054410;28;20094;-77
2022/04/04 01:26:49;;;;;;;27.58;13.18;;;;;;;;;;5054059;28;20025;-77
2022/04/04 01:29:15;;;;;;;23.88;12.48;;;;;;;;;;5054419;28;20404;-77
2022/04/04 01:31:40;;;;;;;24.85;13.00;;;;;;;;;;5054152;28;20025;-77
2022/04/04 01:34:06;;;;;;;22.90;12.65;;;;;;;;;;5054466;28;20055;-76
2022/04/04 01:36:31;;;;;;;24.40;13.15;;;;;;;;;;5054154;28;20036;-75
2022/04/04 01:38:57;;;;;;;25.67;14.65;;;;;;;;;;5054048;28;20509;-75
2022/04/04 01:41:22;;;;;;;32.47;13.70;;;;;;;;;;5053720;28;20131;-74
2022/04/04 01:43:47;;;;;;;32.85;14.50;;;;;;;;;;5054014;28;20029;-75
2022/04/04 01:46:26;;;;;;;28.52;14.27;;;;;;;;;;5054158;28;20370;-75
2022/04/04 01:48:55;;;;;;;27.50;12.45;;;;;;;;;;5053981;28;20029;-75
2022/04/04 01:51:21;;;;;;;23.63;12.27;;;;;;;;;;5053443;28;20453;-75
2022/04/04 01:53:47;;;;;;;26.05;12.57;;;;;;;;;;5052967;28;20028;-75
2022/04/04 01:56:13;;;;;;;22.90;11.93;;;;;;;;;;5054201;28;20025;-76
2022/04/04 01:58:38;;;;;;;26.63;14.15;;;;;;;;;;5036404;28;20439;-75
2022/04/04 02:01:12;;;;;;;29.42;14.07;;;;;;;;;;5052648;28;20347;-74
2022/04/04 02:03:37;;;;;;;24.38;12.98;;;;;;;;;;5053790;28;20064;-75
2022/04/04 02:06:03;;;;;;;24.42;13.32;;;;;;;;;;5053819;28;20102;-75
2022/04/04 02:08:29;;;;;;;24.65;13.20;;;;;;;;;;5053538;28;20028;-75
2022/04/04 02:10:55;;;;;;;23.90;12.85;;;;;;;;;;5054374;28;20051;-74
2022/04/04 02:13:23;;;;;;;28.08;13.02;;;;;;;;;;5054070;28;20108;-75
2022/04/04 02:15:50;;;;;;;26.98;13.00;;;;;;;;;;5053819;28;20029;-75
2022/04/04 02:18:15;;;;;;;25.70;13.50;;;;;;;;;;5053693;28;20564;-74
2022/04/04 02:20:41;;;;;;;27.60;13.40;;;;;;;;;;5053696;28;20033;-75
2022/04/04 02:23:07;;;;;;;25.48;13.55;;;;;;;;;;5053391;28;20033;-74
2022/04/04 02:25:32;;;;;;;27.90;14.32;;;;;;;;;;5052401;28;20454;-75
2022/04/04 02:27:58;;;;;;;26.17;13.82;;;;;;;;;;5053699;28;20040;-75
2022/04/04 02:30:24;;;;;;;30.23;15.60;;;;;;;;;;5053896;28;20033;-75
2022/04/04 02:32:49;;;;;;;30.55;14.88;;;;;;;;;;5053809;28;20029;-74
2022/04/04 02:35:15;;;;;;;29.13;14.95;;;;;;;;;;5053522;28;20089;-74
2022/04/04 02:37:40;;;;;;;29.15;14.55;;;;;;;;;;5053300;28;20040;-75
2022/04/04 02:40:06;;;;;;;29.45;14.75;;;;;;;;;;5053571;28;20033;-75
2022/04/04 02:42:32;;;;;;;30.65;15.20;;;;;;;;;;5056518;28;20053;-75
2022/04/04 02:44:58;;;;;;;31.15;15.32;;;;;;;;;;5057162;28;20107;-75
2022/04/04 02:47:23;;;;;;;35.30;15.10;;;;;;;;;;5057261;28;20028;-74
2022/04/04 02:49:48;;;;;;;35.97;15.43;;;;;;;;;;5057262;28;20020;-76
2022/04/04 02:52:14;;;;;;;33.38;15.73;;;;;;;;;;5057387;28;20388;-76
2022/04/04 02:54:39;;;;;;;33.03;15.77;;;;;;;;;;5039956;28;20025;-74
2022/04/04 02:57:05;;;;;;;35.55;16.30;;;;;;;;;;5057024;28;20075;-75
2022/04/04 02:59:31;;;;;;;34.13;15.80;;;;;;;;;;5057002;28;20108;-75
2022/04/04 03:01:56;;;;;;;33.22;16.52;;;;;;;;;;5057237;28;20052;-74
2022/04/04 03:04:22;;;;;;;33.95;16.60;;;;;;;;;;5056736;28;20029;-75
2022/04/04 03:06:48;;;;;;;38.45;17.40;;;;;;;;;;5056579;28;20025;-75
2022/04/04 03:09:13;;;;;;;35.80;17.45;;;;;;;;;;5056802;28;20032;-75
2022/04/04 03:11:39;;;;;;;41.40;19.40;;;;;;;;;;5057300;28;20116;-75
2022/04/04 03:14:05;;;;;;;40.47;17.80;;;;;;;;;;5039005;28;20021;-75
2022/04/04 03:16:30;;;;;;;42.83;18.25;;;;;;;;;;5056606;28;20024;-75
2022/04/04 03:18:57;;;;;;;41.22;19.17;;;;;;;;;;5056657;28;20021;-74
2022/04/04 03:21:23;;;;;;;37.45;18.77;;;;;;;;;;5056541;28;20025;-75
2022/04/04 03:23:48;;;;;;;39.92;19.88;;;;;;;;;;5038667;28;20492;-75
2022/04/04 03:26:14;;;;;;;39.95;19.30;;;;;;;;;;5056562;28;20430;-75
2022/04/04 03:28:40;;;;;;;38.35;19.55;;;;;;;;;;5038601;28;20477;-74
2022/04/04 03:31:05;;;;;;;43.20;19.73;;;;;;;;;;5055169;28;20124;-75
2022/04/04 03:33:35;;;;;;;35.92;18.85;;;;;;;;;;5056405;28;20039;-74
2022/04/04 03:36:00;;;;;;;37.97;19.02;;;;;;;;;;5056060;28;20025;-75
2022/04/04 03:38:26;;;;;;;42.40;18.98;;;;;;;;;;5056304;28;20135;-75
2022/04/04 03:40:52;;;;;;;33.35;17.38;;;;;;;;;;5056089;28;20044;-75
2022/04/04 03:43:17;;;;;;;31.70;16.25;;;;;;;;;;5038268;28;20470;-75
2022/04/04 03:45:43;;;;;;;34.92;17.70;;;;;;;;;;5056069;28;20036;-75
2022/04/04 03:48:08;;;;;;;29.70;16.60;;;;;;;;;;5055136;28;20028;-75
2022/04/04 03:50:35;;;;;;;36.30;16.88;;;;;;;;;;5038034;28;20515;-74
2022/04/04 03:53:01;;;;;;;31.83;15.90;;;;;;;;;;5054748;28;20021;-75
2022/04/04 03:55:28;;;;;;;33.70;15.48;;;;;;;;;;5056311;28;20020;-75
2022/04/04 03:57:54;;;;;;;31.63;16.27;;;;;;;;;;5056618;28;20036;-75
2022/04/04 04:00:21;;;;;;;30.55;16.45;;;;;;;;;;5055793;28;20029;-75
2022/04/04 04:02:47;;;;;;;35.10;17.05;;;;;;;;;;5055713;28;20493;-74
2022/04/04 04:05:13;;;;;;;30.80;16.58;;;;;;;;;;5054296;28;20132;-74
2022/04/04 04:07:38;;;;;;;39.17;17.98;;;;;;;;;;5037886;28;20115;-75
2022/04/04 04:10:05;;;;;;;34.88;16.90;;;;;;;;;;5037905;28;20111;-76
2022/04/04 04:12:31;;;;;;;35.03;17.02;;;;;;;;;;5055592;28;20435;-77
2022/04/04 04:14:57;;;;;;;37.22;17.92;;;;;;;;;;5038005;28;20037;-78
2022/04/04 04:17:24;;;;;;;34.22;17.75;;;;;;;;;;5055565;28;20033;-76
2022/04/04 04:22:34;;;;;;;34.03;16.63;;;;;;;;;;5055433;28;20035;-76
2022/04/04 04:24:59;;;;;;;40.67;17.40;;;;;;;;;;5055213;28;20041;-76
2022/04/04 04:27:25;;;;;;;36.40;18.70;;;;;;;;;;5037455;28;20394;-77
2022/04/04 04:29:51;;;;;;;38.00;18.10;;;;;;;;;;5055310;28;20086;-77
2022/04/04 04:32:17;;;;;;;41.60;18.45;;;;;;;;;;5055456;28;20033;-77
2022/04/04 04:34:46;;;;;;;43.92;19.40;;;;;;;;;;5054999;28;20119;-78
2022/04/04 04:37:13;;;;;;;51.13;20.95;;;;;;;;;;5039291;28;20519;-78
2022/04/04 04:39:39;;;;;;;40.33;20.52;;;;;;;;;;5037273;28;20037;-77
2022/04/04 04:42:05;;;;;;;62.97;19.65;;;;;;;;;;5033228;28;20037;-76
2022/04/04 04:44:30;;;;;;;42.78;20.48;;;;;;;;;;5055105;28;20397;-76
2022/04/04 04:46:56;;;;;;;48.55;20.17;;;;;;;;;;5055205;28;20025;-77
2022/04/04 04:49:22;;;;;;;42.15;19.98;;;;;;;;;;5054668;28;20017;-77
2022/04/04 04:51:48;;;;;;;62.35;27.35;;;;;;;;;;5070194;28;20106;-77
2022/04/04 04:54:13;;;;;;;40.80;19.70;;;;;;;;;;5070560;28;20025;-77
2022/04/04 04:56:39;;;;;;;45.33;19.13;;;;;;;;;;5054769;28;20028;-75
2022/04/04 04:59:04;;;;;;;36.65;18.42;;;;;;;;;;5053527;28;20044;-79
2022/04/04 05:01:29;;;;;;;35.67;18.33;;;;;;;;;;5053443;28;20108;-78
2022/04/04 05:03:55;;;;;;;34.92;18.48;;;;;;;;;;5053636;28;20323;-76
2022/04/04 05:06:21;;;;;;;34.33;17.75;;;;;;;;;;5051966;28;20108;-77
2022/04/04 05:08:46;;;;;;;36.08;17.20;;;;;;;;;;5052917;28;20110;-77
2022/04/04 05:11:12;;;;;;;33.50;16.83;;;;;;;;;;5053072;28;20029;-77
2022/04/04 05:13:38;;;;;;;36.25;18.33;;;;;;;;;;5052699;28;20107;-76
2022/04/04 05:16:08;;;;;;;35.53;17.88;;;;;;;;;;5053024;28;20432;-76
2022/04/04 05:18:34;;;;;;;35.15;16.48;;;;;;;;;;5054705;28;20020;-78
2022/04/04 05:20:59;;;;;;;30.58;15.25;;;;;;;;;;5053134;28;20031;-77
2022/04/04 05:23:25;;;;;;;31.00;16.58;;;;;;;;;;5053179;28;20454;-77
2022/04/04 05:25:50;;;;;;;37.28;18.10;;;;;;;;;;5053076;28;20033;-76
2022/04/04 05:28:16;;;;;;;38.03;17.75;;;;;;;;;;5052503;28;20108;-77
2022/04/04 05:30:41;;;;;;;37.30;18.98;;;;;;;;;;5052126;28;20397;-77
2022/04/04 05:33:09;;;;;;;40.70;18.98;;;;;;;;;;5068070;28;20039;-77
2022/04/04 05:35:35;;;;;;;40.72;19.52;;;;;;;;;;5068374;28;20067;-76
2022/04/04 05:38:00;;;;;;;41.10;21.23;;;;;;;;;;5054505;28;20454;-75
2022/04/04 05:40:26;;;;;;;40.63;20.45;;;;;;;;;;5054963;28;20166;-76
2022/04/04 05:42:53;;;;;;;40.15;19.55;;;;;;;;;;5053626;28;20043;-76
2022/04/04 05:45:18;;;;;;;36.83;19.85;;;;;;;;;;5036118;28;20021;-75
2022/04/04 05:47:44;;;;;;;38.92;19.10;;;;;;;;;;5052479;28;20017;-76
2022/04/04 05:50:09;;;;;;;35.20;18.83;;;;;;;;;;5053639;28;20119;-75
2022/04/04 05:52:35;;;;;;;37.50;20.23;;;;;;;;;;5053529;28;20025;-77
2022/04/04 05:55:05;;;;;;;37.80;19.17;;;;;;;;;;5053837;28;20362;-76
2022/04/04 05:57:31;;;;;;;34.17;17.85;;;;;;;;;;5054017;28;20078;-75
2022/04/04 05:59:57;;;;;;;32.45;17.15;;;;;;;;;;5020160;28;20394;-76
2022/04/04 06:02:23;;;;;;;32.13;18.75;;;;;;;;;;5053519;28;20025;-76
2022/04/04 06:04:49;;;;;;;30.90;17.98;;;;;;;;;;5053538;28;20477;-78
2022/04/04 06:07:15;;;;;;;30.58;17.98;;;;;;;;;;5036013;28;20025;-77
2022/04/04 06:09:40;;;;;;;32.72;17.50;;;;;;;;;;5053719;28;20029;-77
2022/04/04 06:12:08;;;;;;;31.77;17.40;;;;;;;;;;5059625;28;20385;-76
2022/04/04 06:14:34;;;;;;;31.85;18.20;;;;;;;;;;5073572;28;20024;-76
2022/04/04 06:17:00;;;;;;;36.05;18.25;;;;;;;;;;5075054;28;20024;-76
2022/04/04 06:19:28;;;;;;;32.33;17.77;;;;;;;;;;5077786;28;20039;-77
2022/04/04 06:21:53;;;;;;;31.58;18.13;;;;;;;;;;5079762;28;20027;-77
2022/04/04 06:24:19;;;;;;;31.50;17.48;;;;;;;;;;5077686;28;20028;-77
2022/04/04 06:26:44;;;;;;;40.28;20.40;;;;;;;;;;5077822;28;20025;-76
2022/04/04 06:29:10;;;;;;;32.28;18.60;;;;;;;;;;5077120;28;20484;-75
2022/04/04 06:31:36;;;;;;;30.88;16.63;;;;;;;;;;5059738;28;20396;-76
2022/04/04 06:34:04;;;;;;;29.08;17.83;;;;;;;;;;5059734;28;20032;-76
2022/04/04 06:36:30;;;;;;;27.95;16.27;;;;;;;;;;5077324;28;20040;-76
2022/04/04 06:38:56;;;;;;;29.48;17.50;;;;;;;;;;5077201;28;20366;-78
2022/04/04 06:41:21;;;;;;;33.17;17.80;;;;;;;;;;5060405;28;20036;-77
2022/04/04 06:43:47;;;;;;;32.65;18.63;;;;;;;;;;5076907;28;20021;-77
2022/04/04 06:46:13;;;;;;;29.65;18.13;;;;;;;;;;5077179;28;20020;-77
2022/04/04 06:48:39;;;;;;;36.25;18.38;;;;;;;;;;5077120;28;20028;-76
2022/04/04 06:51:05;;;;;;;24.95;16.10;;;;;;;;;;5077312;28;20089;-76
2022/04/04 06:53:31;;;;;;;27.80;16.73;;;;;;;;;;5076916;28;20119;-77
2022/04/04 06:55:56;;;;;;;31.77;18.38;;;;;;;;;;5068579;28;20291;-76
2022/04/04 06:58:22;;;;;;;34.25;19.10;;;;;;;;;;5056088;28;20056;-76
2022/04/04 07:00:48;;;;;;;35.75;18.50;;;;;;;;;;5053715;28;20454;-77
2022/04/04 07:03:14;;;;;;;30.27;18.40;;;;;;;;;;5057943;28;20112;-76
2022/04/04 07:05:42;;;;;;;31.77;17.15;;;;;;;;;;5056317;28;20098;-76
2022/04/04 07:08:08;;;;;;;29.25;15.27;;;;;;;;;;5071851;28;20059;-76
2022/04/04 07:10:34;;;;;;;32.08;16.63;;;;;;;;;;5076024;28;20338;-75
2022/04/04 07:12:59;;;;;;;29.95;16.98;;;;;;;;;;5075069;28;20105;-77
2022/04/04 07:15:27;;;;;;;24.92;15.90;;;;;;;;;;5074566;28;20068;-77
2022/04/04 07:17:53;;;;;;;26.73;15.95;;;;;;;;;;5034695;28;20036;-76
2022/04/04 07:20:19;;;;;;;27.70;16.00;;;;;;;;;;5055485;28;20124;-77
2022/04/04 07:22:44;;;;;;;24.30;13.85;;;;;;;;;;5037134;28;20496;-77
2022/04/04 07:25:10;;;;;;;23.90;12.95;;;;;;;;;;5037239;28;20040;-77
2022/04/04 07:27:36;;;;;;;23.92;13.38;;;;;;;;;;5020910;28;20032;-76
2022/04/04 07:30:02;;;;;;;22.25;12.80;;;;;;;;;;5054666;28;20118;-77
2022/04/04 07:32:28;;;;;;;20.88;11.75;;;;;;;;;;5054331;28;20024;-78
2022/04/04 07:34:53;;;;;;;19.30;12.52;;;;;;;;;;5055092;28;20029;-77
2022/04/04 07:37:19;;;;;;;18.70;11.95;;;;;;;;;;5053844;28;20025;-76
2022/04/04 07:39:44;;;;;;;23.15;13.35;;;;;;;;;;5039534;28;20171;-77
2022/04/04 07:42:12;;;;;;;28.85;13.82;;;;;;;;;;5033044;28;20115;-77
2022/04/04 07:44:38;;;;;;;23.88;14.02;;;;;;;;;;5052277;28;20036;-76
2022/04/04 07:47:04;;;;;;;31.27;15.65;;;;;;;;;;5049233;28;20032;-76
2022/04/04 07:49:29;;;;;;;24.80;15.65;;;;;;;;;;5034647;28;20030;-78
2022/04/04 07:51:55;;;;;;;22.10;13.75;;;;;;;;;;5034414;28;20025;-77
2022/04/04 07:54:23;;;;;;;22.80;13.95;;;;;;;;;;5034619;28;20033;-77
2022/04/04 07:56:49;;;;;;;29.63;15.45;;;;;;;;;;5034144;28;20025;-78
2022/04/04 07:59:14;;;;;;;25.75;16.85;;;;;;;;;;5035018;28;20112;-77
2022/04/04 08:01:39;;;;;;;32.88;19.48;;;;;;;;;;5035828;28;20033;-77
2022/04/04 08:04:05;;;;;;;35.83;19.55;;;;;;;;;;5036488;28;20351;-77
2022/04/04 08:06:31;;;;;;;24.67;13.88;;;;;;;;;;5035996;28;20037;-76
2022/04/04 08:08:56;;;;;;;35.53;17.83;;;;;;;;;;5035719;28;20029;-77
2022/04/04 08:11:22;;;;;;;27.95;15.55;;;;;;;;;;5035398;28;20028;-76
2022/04/04 08:13:47;;;;;;;23.52;14.35;;;;;;;;;;5035599;28;20423;-76
2022/04/04 08:16:13;;;;;;;26.98;15.38;;;;;;;;;;5035790;28;20030;-76
2022/04/04 08:18:38;;;;;;;24.67;15.95;;;;;;;;;;5035547;28;20469;-76
2022/04/04 08:21:04;;;;;;;31.33;16.58;;;;;;;;;;5035522;28;20033;-77
2022/04/04 08:23:31;;;;;;;31.63;15.05;;;;;;;;;;5036389;28;20025;-77
2022/04/04 08:25:57;;;;;;;22.80;12.88;;;;;;;;;;5036184;28;20492;-77
2022/04/04 08:28:23;;;;;;;24.73;14.07;;;;;;;;;;5035289;28;20072;-77
2022/04/04 08:30:50;;;;;;;26.13;14.30;;;;;;;;;;5035508;28;20175;-77
2022/04/04 08:33:16;;;;;;;29.98;14.18;;;;;;;;;;5035540;28;20032;-77
2022/04/04 08:35:41;;;;;;;24.20;14.65;;;;;;;;;;5035654;28;20060;-75
2022/04/04 08:38:07;;;;;;;24.10;13.65;;;;;;;;;;5057594;28;20383;-77
2022/04/04 08:40:33;;;;;;;22.00;13.93;;;;;;;;;;5049645;28;20374;-75
2022/04/04 08:42:58;;;;;;;31.58;13.35;;;;;;;;;;5054439;28;20059;-73
2022/04/04 08:45:24;;;;;;;26.65;14.85;;;;;;;;;;5019473;28;20108;-77
2022/04/04 08:47:49;;;;;;;21.20;13.57;;;;;;;;;;5019160;28;20029;-77
2022/04/04 08:50:18;;;;;;;26.45;15.57;;;;;;;;;;5053001;28;20043;-77
2022/04/04 08:52:44;;;;;;;29.38;16.77;;;;;;;;;;5053077;28;20509;-76
2022/04/04 08:55:12;;;;;;;31.70;15.25;;;;;;;;;;5035079;28;20025;-76
2022/04/04 08:57:38;;;;;;;32.00;15.38;;;;;;;;;;5019514;28;20033;-76
2022/04/04 09:00:04;;;;;;;28.48;14.55;;;;;;;;;;5052889;28;20028;-75
2022/04/04 09:02:30;;;;;;;27.33;15.57;;;;;;;;;;5053665;28;20442;-75
2022/04/04 09:05:05;;;;;;;29.55;15.52;;;;;;;;;;5054766;28;20090;-77
2022/04/04 09:07:30;;;;;;;44.95;25.67;;;;;;;;;;5023432;28;20037;-78
2022/04/04 09:09:56;;;;;;;48.58;24.38;;;;;;;;;;5020112;28;20119;-78
2022/04/04 09:12:23;;;;;;;25.48;15.73;;;;;;;;;;5037017;28;20437;-79
2022/04/04 09:14:51;;;;;;;22.80;13.48;;;;;;;;;;5020363;28;20043;-80
2022/04/04 09:17:17;;;;;;;25.92;14.90;;;;;;;;;;5020550;28;20085;-78
2022/04/04 09:19:43;;;;;;;24.17;13.57;;;;;;;;;;5036500;28;20034;-78
2022/04/04 09:22:10;;;;;;;27.85;13.73;;;;;;;;;;5019987;28;20033;-78
2022/04/04 09:24:45;;;;;;;21.38;13.32;;;;;;;;;;5036235;28;20143;-77
2022/04/04 09:27:17;;;;;;;25.33;14.52;;;;;;;;;;5039214;28;20029;-77
2022/04/04 09:29:43;;;;;;;27.23;14.77;;;;;;;;;;5037339;28;20035;-78
2022/04/04 09:32:14;;;;;;;21.77;11.93;;;;;;;;;;5020288;28;20021;-76
2022/04/04 09:35:08;;;;;;;21.60;13.80;;;;;;;;;;5054045;28;20425;-77
2022/04/04 09:37:35;;;;;;;21.52;11.70;;;;;;;;;;5053986;28;20465;-77
2022/04/04 09:40:06;;;;;;;22.70;13.60;;;;;;;;;;5053952;28;20025;-76
2022/04/04 09:42:32;;;;;;;24.00;12.27;;;;;;;;;;5054071;28;20394;-77
2022/04/04 09:45:09;;;;;;;22.90;13.50;;;;;;;;;;5054413;28;20025;-77
2022/04/04 09:47:51;;;;;;;28.17;14.40;;;;;;;;;;5055736;28;20029;-76
2022/04/04 09:50:31;;;;;;;22.20;12.90;;;;;;;;;;5053775;28;20028;-76
2022/04/04 09:52:57;;;;;;;33.03;17.10;;;;;;;;;;5053473;28;20028;-78
2022/04/04 09:55:32;;;;;;;22.70;12.88;;;;;;;;;;5054081;28;20032;-78
2022/04/04 09:58:00;;;;;;;23.52;14.55;;;;;;;;;;5053883;28;20423;-78
2022/04/04 10:00:25;;;;;;;35.22;20.55;;;;;;;;;;5020163;28;20068;-76
2022/04/04 10:02:56;;;;;;;26.10;12.48;;;;;;;;;;5053791;28;20056;-79
2022/04/04 10:05:26;;;;;;;22.38;11.68;;;;;;;;;;5036231;28;20438;-77
2022/04/04 10:07:52;;;;;;;27.20;12.60;;;;;;;;;;5039618;28;20040;-77
2022/04/04 10:10:18;;;;;;;20.73;12.30;;;;;;;;;;5054494;28;20032;-77
2022/04/04 10:12:43;;;;;;;28.98;14.93;;;;;;;;;;5053936;28;20037;-77
2022/04/04 10:15:09;;;;;;;26.58;12.30;;;;;;;;;;5019200;28;20038;-79
2022/04/04 10:17:34;;;;;;;23.00;12.60;;;;;;;;;;5019603;28;20033;-78
2022/04/04 10:20:00;;;;;;;29.92;15.70;;;;;;;;;;5019518;28;20033;-78
2022/04/04 10:22:25;;;;;;;17.73;11.00;;;;;;;;;;5019244;28;20417;-76
2022/04/04 10:24:51;;;;;;;19.77;10.65;;;;;;;;;;5020424;28;20044;-77
2022/04/04 10:27:20;;;;;;;18.73;10.55;;;;;;;;;;5036137;28;20071;-78
2022/04/04 10:32:30;;;;;;;31.60;15.70;;;;;;;;;;5055631;28;20030;-77
2022/04/04 10:34:56;;;;;;;18.30;11.25;;;;;;;;;;5021122;28;20036;-79
2022/04/04 10:37:25;;;;;;;23.52;11.43;;;;;;;;;;5035506;28;20028;-79
2022/04/04 10:39:51;;;;;;;19.95;11.27;;;;;;;;;;5051491;28;20029;-81
2022/04/04 10:42:33;;;;;;;16.58;10.00;;;;;;;;;;5052137;28;20041;-82
2022/04/04 10:45:08;;;;;;;20.75;10.07;;;;;;;;;;5052127;28;20178;-76
2022/04/04 10:47:36;;;;;;;27.75;14.82;;;;;;;;;;5055567;28;20458;-80
2022/04/04 10:50:24;;;;;;;27.40;12.05;;;;;;;;;;5055469;28;20032;-80
2022/04/04 10:52:51;;;;;;;21.48;10.52;;;;;;;;;;5036958;28;20090;-78
2022/04/04 10:55:38;;;;;;;25.17;10.10;;;;;;;;;;5053712;28;20036;-79
2022/04/04 10:58:12;;;;;;;18.60;10.35;;;;;;;;;;5053308;28;20032;-81
2022/04/04 11:00:55;;;;;;;27.15;12.45;;;;;;;;;;5052549;28;20112;-80
2022/04/04 11:03:30;;;;;;;19.65;10.75;;;;;;;;;;5055661;28;20128;-77
2022/04/04 11:08:43;;;;;;;23.27;11.40;;;;;;;;;;5056620;28;20031;-78
2022/04/04 11:11:19;;;;;;;18.63;10.55;;;;;;;;;;5027973;28;20021;-79
2022/04/04 11:13:50;;;;;;;21.42;10.80;;;;;;;;;;5056526;28;20029;-82
2022/04/04 11:16:17;;;;;;;19.70;10.90;;;;;;;;;;5038829;28;20128;-77
2022/04/04 11:18:52;;;;;;;34.05;16.90;;;;;;;;;;5056549;28;20021;-83
2022/04/04 11:21:39;;;;;;;20.98;10.88;;;;;;;;;;5056505;28;20031;-78
2022/04/04 11:24:09;;;;;;;15.68;10.00;;;;;;;;;;5038815;28;20107;-80
2022/04/04 11:26:37;;;;;;;23.88;15.65;;;;;;;;;;5022641;28;20029;-80
2022/04/04 11:29:02;;;;;;;17.52;11.27;;;;;;;;;;5039432;28;20346;-82
2022/04/04 11:31:28;;;;;;;16.92;10.00;;;;;;;;;;5024349;28;20025;-79
2022/04/04 11:33:55;;;;;;;19.85;10.75;;;;;;;;;;5056243;28;20358;-80
2022/04/04 11:36:24;;;;;;;19.38;10.90;;;;;;;;;;5056698;28;20596;-79
2022/04/04 11:38:57;;;;;;;17.63;10.35;;;;;;;;;;5056261;28;20031;-79
2022/04/04 11:41:24;;;;;;;17.90;9.50;;;;;;;;;;5039496;28;20505;-76
2022/04/04 11:43:52;;;;;;;16.15;10.38;;;;;;;;;;5038778;28;20052;-76
2022/04/04 11:46:19;;;;;;;17.02;10.27;;;;;;;;;;5056086;28;20025;-77
2022/04/04 11:48:54;;;;;;;19.70;10.48;;;;;;;;;;5038390;28;20111;-76
2022/04/04 11:51:41;;;;;;;16.15;10.32;;;;;;;;;;5039234;28;20041;-77
2022/04/04 11:54:09;;;;;;;21.70;10.68;;;;;;;;;;5041475;28;20028;-77
2022/04/04 11:56:35;;;;;;;19.23;9.48;;;;;;;;;;5056211;28;20033;-77
2022/04/04 11:59:04;;;;;;;19.23;10.52;;;;;;;;;;5038101;28;20401;-76
2022/04/04 12:01:33;;;;;;;24.65;11.30;;;;;;;;;;5055858;28;20021;-76
2022/04/04 12:04:00;;;;;;;16.75;10.43;;;;;;;;;;5037839;28;20025;-76
2022/04/04 12:06:28;;;;;;;29.63;15.00;;;;;;;;;;5038484;28;20032;-77
2022/04/04 12:08:55;;;;;;;21.90;11.90;;;;;;;;;;5038465;28;20044;-77
2022/04/04 12:11:30;;;;;;;23.95;12.15;;;;;;;;;;5038247;28;20443;-78
2022/04/04 12:14:00;;;;;;;20.23;10.32;;;;;;;;;;5054840;28;20028;-77
2022/04/04 12:16:26;;;;;;;17.50;10.80;;;;;;;;;;5055515;28;20051;-77
2022/04/04 12:18:59;;;;;;;19.73;11.10;;;;;;;;;;5037787;28;20454;-76
2022/04/04 12:21:25;;;;;;;19.77;10.25;;;;;;;;;;5055417;28;20029;-77
2022/04/04 12:26:35;;;;;;;17.60;9.50;;;;;;;;;;5040328;28;20473;-77
2022/04/04 12:29:03;;;;;;;20.98;10.45;;;;;;;;;;5037648;28;20389;-77
2022/04/04 12:31:28;;;;;;;19.13;9.85;;;;;;;;;;5055388;28;20029;-77
2022/04/04 12:34:08;;;;;;;23.80;11.23;;;;;;;;;;5055102;28;20029;-77
2022/04/04 12:36:41;;;;;;;18.63;10.00;;;;;;;;;;5055608;28;20033;-77
2022/04/04 12:39:17;;;;;;;17.58;9.68;;;;;;;;;;5037170;28;20453;-76
2022/04/04 12:41:44;;;;;;;17.95;9.75;;;;;;;;;;5054988;28;20409;-77
2022/04/04 12:44:10;;;;;;;21.90;9.75;;;;;;;;;;5054997;28;20123;-77
2022/04/04 12:46:36;;;;;;;19.60;10.65;;;;;;;;;;5020531;28;20064;-76
2022/04/04 12:49:17;;;;;;;19.65;10.95;;;;;;;;;;5054910;28;20025;-77
2022/04/04 12:51:58;;;;;;;23.67;12.45;;;;;;;;;;5037125;28;20024;-77
2022/04/04 12:54:24;;;;;;;16.25;9.48;;;;;;;;;;5037744;28;20416;-77
2022/04/04 12:56:50;;;;;;;15.95;9.65;;;;;;;;;;5054787;28;20375;-77
2022/04/04 12:59:16;;;;;;;15.48;10.27;;;;;;;;;;5055491;28;20055;-78
2022/04/04 13:01:42;;;;;;;17.23;9.90;;;;;;;;;;5054607;28;20033;-78
2022/04/04 13:04:21;;;;;;;16.52;9.38;;;;;;;;;;5054532;28;20332;-77
2022/04/04 13:06:49;;;;;;;16.98;10.07;;;;;;;;;;5036704;28;20056;-77
2022/04/04 13:09:22;;;;;;;18.67;9.40;;;;;;;;;;5036727;28;20064;-77
2022/04/04 13:11:48;;;;;;;15.60;9.48;;;;;;;;;;5036683;28;20098;-77
2022/04/04 13:14:14;;;;;;;17.90;9.55;;;;;;;;;;5036822;28;20025;-77
2022/04/04 13:16:42;;;;;;;16.08;9.27;;;;;;;;;;5054427;28;20037;-77
2022/04/04 13:19:16;;;;;;;15.48;9.30;;;;;;;;;;5054476;28;20021;-76
2022/04/04 13:21:48;;;;;;;17.10;9.32;;;;;;;;;;5054302;28;20036;-77
2022/04/04 13:24:13;;;;;;;16.42;9.30;;;;;;;;;;5054250;28;20044;-78
2022/04/04 13:26:39;;;;;;;17.33;9.90;;;;;;;;;;5036321;28;20374;-77
2022/04/04 13:29:07;;;;;;;17.08;9.05;;;;;;;;;;5036378;28;20036;-77
2022/04/04 13:31:33;;;;;;;18.25;9.95;;;;;;;;;;5036374;28;20025;-77
2022/04/04 13:33:58;;;;;;;17.40;9.30;;;;;;;;;;5054249;28;20366;-78
2022/04/04 13:36:24;;;;;;;19.05;9.65;;;;;;;;;;5054684;28;20036;-77
2022/04/04 13:38:53;;;;;;;15.98;8.57;;;;;;;;;;5054697;28;20091;-77
2022/04/04 13:41:28;;;;;;;19.52;10.25;;;;;;;;;;5054004;28;20045;-78
2022/04/04 13:43:54;;;;;;;23.23;11.50;;;;;;;;;;5054245;28;20035;-77
2022/04/04 13:46:21;;;;;;;27.30;14.00;;;;;;;;;;5036506;28;20040;-77
2022/04/04 13:48:47;;;;;;;27.05;12.60;;;;;;;;;;5053865;28;20040;-77
2022/04/04 13:51:21;;;;;;;20.75;11.30;;;;;;;;;;5054049;28;20029;-77
2022/04/04 13:53:47;;;;;;;15.63;9.35;;;;;;;;;;5054249;28;20069;-76
2022/04/04 13:56:12;;;;;;;14.52;8.80;;;;;;;;;;5037289;28;20111;-77
2022/04/04 13:58:38;;;;;;;20.80;9.80;;;;;;;;;;5053826;28;20484;-76
2022/04/04 14:01:03;;;;;;;14.70;9.50;;;;;;;;;;5053992;28;20078;-77
2022/04/04 14:03:31;;;;;;;19.75;11.25;;;;;;;;;;5055062;28;20025;-78
2022/04/04 14:05:59;;;;;;;20.65;11.82;;;;;;;;;;5054002;28;20025;-76
2022/04/04 14:08:25;;;;;;;20.65;10.55;;;;;;;;;;5052699;28;20048;-78
2022/04/04 14:10:54;;;;;;;19.17;9.57;;;;;;;;;;5053793;28;20416;-77
2022/04/04 14:13:20;;;;;;;16.85;8.52;;;;;;;;;;5036563;28;20359;-77
2022/04/04 14:15:45;;;;;;;15.60;9.40;;;;;;;;;;5035970;28;20709;-77
2022/04/04 14:18:11;;;;;;;38.05;22.50;;;;;;;;;;5053764;28;20028;-77
2022/04/04 14:20:36;;;;;;;22.90;11.00;;;;;;;;;;5053766;28;20478;-77
2022/04/04 14:23:03;;;;;;;18.15;9.75;;;;;;;;;;5053624;28;20107;-76
2022/04/04 14:25:28;;;;;;;17.52;9.60;;;;;;;;;;5053561;28;20438;-76
2022/04/04 14:27:54;;;;;;;17.55;10.05;;;;;;;;;;5053295;28;20108;-77
2022/04/04 14:30:20;;;;;;;24.50;9.95;;;;;;;;;;5036003;28;20127;-76